sensor_id;sensor_type;location;lat;lon;timestamp;temperature;humidity
5743;DHT22;2896;53.500;10.020;2022-09-03T00:00:27;15.70;99.90
5743;DHT22;2896;53.500;10.020;2022-09-03T00:03:01;15.60;99.90
5743;DHT22;2896;53.500;10.020;2022-09-03T00:05:34;15.60;99.90
5743;DHT22;2896;53.500;10.020;2022-09-03T00:08:06;15.70;99.90
5743;DHT22;2896;53.500;10.020;2022-09-03T00:10:40;15.50;99.90
5743;DHT22;2896;53.500;10.020;2022-09-03T00:13:13;15.50;99.90
5743;DHT22;2896;53.500;10.020;2022-09-03T00:15:41;15.50;99.90
5743;DHT22;2896;53.500;10.020;2022-09-03T00:18:14;15.40;99.90
5743;DHT22;2896;53.500;10.020;2022-09-03T00:20:44;15.30;99.90
5743;DHT22;2896;53.500;10.020;2022-09-03T00:23:17;15.30;99.90
5743;DHT22;2896;53.500;10.020;2022-09-03T00:25:48;15.30;99.90
5743;DHT22;2896;53.500;10.020;2022-09-03T00:28:19;15.30;99.90
5743;DHT22;2896;53.500;10.020;2022-09-03T00:30:51;15.30;99.90
5743;DHT22;2896;53.500;10.020;2022-09-03T00:33:24;15.10;99.90
5743;DHT22;2896;53.500;10.020;2022-09-03T00:36:02;15.10;99.90
5743;DHT22;2896;53.500;10.020;2022-09-03T00:38:30;15.20;99.90
5743;DHT22;2896;53.500;10.020;2022-09-03T00:41:07;15.30;99.90
5743;DHT22;2896;53.500;10.020;2022-09-03T00:43:46;15.10;99.90
5743;DHT22;2896;53.500;10.020;2022-09-03T00:46:17;15.00;99.90
5743;DHT22;2896;53.500;10.020;2022-09-03T00:49:05;15.00;99.90
5743;DHT22;2896;53.500;10.020;2022-09-03T00:51:39;15.00;99.90
5743;DHT22;2896;53.500;10.020;2022-09-03T00:54:16;15.00;99.90
5743;DHT22;2896;53.500;10.020;2022-09-03T00:56:49;15.00;99.90
5743;DHT22;2896;53.500;10.020;2022-09-03T00:59:29;14.80;99.90
5743;DHT22;2896;53.500;10.020;2022-09-03T01:02:05;14.80;99.90
5743;DHT22;2896;53.500;10.020;2022-09-03T01:04:48;14.60;99.90
5743;DHT22;2896;53.500;10.020;2022-09-03T01:07:25;14.50;99.90
5743;DHT22;2896;53.500;10.020;2022-09-03T01:10:04;14.60;99.90
5743;DHT22;2896;53.500;10.020;2022-09-03T01:12:38;14.60;99.90
5743;DHT22;2896;53.500;10.020;2022-09-03T01:15:10;14.60;99.90
5743;DHT22;2896;53.500;10.020;2022-09-03T01:18:00;14.70;99.90
5743;DHT22;2896;53.500;10.020;2022-09-03T01:20:37;14.70;99.90
5743;DHT22;2896;53.500;10.020;2022-09-03T01:26:28;14.60;99.90
5743;DHT22;2896;53.500;10.020;2022-09-03T01:29:03;14.70;99.90
5743;DHT22;2896;53.500;10.020;2022-09-03T01:31:37;14.80;99.90
5743;DHT22;2896;53.500;10.020;2022-09-03T01:34:15;14.80;99.90
5743;DHT22;2896;53.500;10.020;2022-09-03T01:36:51;14.80;99.90
5743;DHT22;2896;53.500;10.020;2022-09-03T01:39:28;14.80;99.90
5743;DHT22;2896;53.500;10.020;2022-09-03T01:42:04;14.80;99.90
5743;DHT22;2896;53.500;10.020;2022-09-03T01:44:54;14.80;99.90
5743;DHT22;2896;53.500;10.020;2022-09-03T01:47:40;14.70;99.90
5743;DHT22;2896;53.500;10.020;2022-09-03T01:50:23;14.80;99.90
5743;DHT22;2896;53.500;10.020;2022-09-03T01:52:55;14.70;99.90
5743;DHT22;2896;53.500;10.020;2022-09-03T01:55:30;14.60;99.90
5743;DHT22;2896;53.500;10.020;2022-09-03T01:57:59;14.60;99.90
5743;DHT22;2896;53.500;10.020;2022-09-03T02:00:30;14.50;99.90
5743;DHT22;2896;53.500;10.020;2022-09-03T02:03:01;14.60;99.90
5743;DHT22;2896;53.500;10.020;2022-09-03T02:05:30;14.60;99.90
5743;DHT22;2896;53.500;10.020;2022-09-03T02:07:59;14.60;99.90
5743;DHT22;2896;53.500;10.020;2022-09-03T02:10:29;14.40;99.90
5743;DHT22;2896;53.500;10.020;2022-09-03T02:13:01;14.40;99.90
5743;DHT22;2896;53.500;10.020;2022-09-03T02:15:32;14.40;99.90
5743;DHT22;2896;53.500;10.020;2022-09-03T02:18:03;14.30;99.90
5743;DHT22;2896;53.500;10.020;2022-09-03T02:20:31;14.20;99.90
5743;DHT22;2896;53.500;10.020;2022-09-03T02:22:58;14.20;99.90
5743;DHT22;2896;53.500;10.020;2022-09-03T02:25:30;14.10;99.90
5743;DHT22;2896;53.500;10.020;2022-09-03T02:27:58;14.20;99.90
5743;DHT22;2896;53.500;10.020;2022-09-03T02:30:25;14.20;99.90
5743;DHT22;2896;53.500;10.020;2022-09-03T02:32:54;14.10;99.90
5743;DHT22;2896;53.500;10.020;2022-09-03T02:35:20;14.10;99.90
5743;DHT22;2896;53.500;10.020;2022-09-03T02:37:47;14.10;99.90
5743;DHT22;2896;53.500;10.020;2022-09-03T02:40:14;14.00;99.90
5743;DHT22;2896;53.500;10.020;2022-09-03T02:42:41;14.10;99.90
5743;DHT22;2896;53.500;10.020;2022-09-03T02:45:15;14.10;99.90
5743;DHT22;2896;53.500;10.020;2022-09-03T02:47:48;14.10;99.90
5743;DHT22;2896;53.500;10.020;2022-09-03T02:50:16;14.10;99.90
5743;DHT22;2896;53.500;10.020;2022-09-03T02:52:43;14.00;99.90
5743;DHT22;2896;53.500;10.020;2022-09-03T02:55:10;13.90;99.90
5743;DHT22;2896;53.500;10.020;2022-09-03T02:57:36;13.70;99.90
5743;DHT22;2896;53.500;10.020;2022-09-03T03:00:04;13.70;99.90
5743;DHT22;2896;53.500;10.020;2022-09-03T03:02:31;13.70;99.90
5743;DHT22;2896;53.500;10.020;2022-09-03T03:04:57;13.70;99.90
5743;DHT22;2896;53.500;10.020;2022-09-03T03:07:26;13.60;99.90
5743;DHT22;2896;53.500;10.020;2022-09-03T03:09:53;13.60;99.90
5743;DHT22;2896;53.500;10.020;2022-09-03T03:12:19;13.70;99.90
5743;DHT22;2896;53.500;10.020;2022-09-03T03:14:46;13.70;99.90
5743;DHT22;2896;53.500;10.020;2022-09-03T03:17:13;13.70;99.90
5743;DHT22;2896;53.500;10.020;2022-09-03T03:19:39;13.70;99.90
5743;DHT22;2896;53.500;10.020;2022-09-03T03:22:06;13.70;99.90
5743;DHT22;2896;53.500;10.020;2022-09-03T03:24:34;13.70;99.90
5743;DHT22;2896;53.500;10.020;2022-09-03T03:27:01;13.60;99.90
5743;DHT22;2896;53.500;10.020;2022-09-03T03:29:30;13.50;99.90
5743;DHT22;2896;53.500;10.020;2022-09-03T03:31:57;13.50;99.90
5743;DHT22;2896;53.500;10.020;2022-09-03T03:34:23;13.60;99.90
5743;DHT22;2896;53.500;10.020;2022-09-03T03:36:50;13.60;99.90
5743;DHT22;2896;53.500;10.020;2022-09-03T03:39:17;13.40;99.90
5743;DHT22;2896;53.500;10.020;2022-09-03T03:41:45;13.40;99.90
5743;DHT22;2896;53.500;10.020;2022-09-03T03:44:11;13.50;99.90
5743;DHT22;2896;53.500;10.020;2022-09-03T03:46:39;13.40;99.90
5743;DHT22;2896;53.500;10.020;2022-09-03T03:49:07;13.30;99.90
5743;DHT22;2896;53.500;10.020;2022-09-03T03:51:36;13.20;99.90
5743;DHT22;2896;53.500;10.020;2022-09-03T03:54:03;13.30;99.90
5743;DHT22;2896;53.500;10.020;2022-09-03T03:56:30;13.20;99.90
5743;DHT22;2896;53.500;10.020;2022-09-03T03:58:58;13.00;99.90
5743;DHT22;2896;53.500;10.020;2022-09-03T04:01:26;12.80;99.90
5743;DHT22;2896;53.500;10.020;2022-09-03T04:03:54;12.70;99.90
5743;DHT22;2896;53.500;10.020;2022-09-03T04:06:21;12.60;99.90
5743;DHT22;2896;53.500;10.020;2022-09-03T04:08:48;12.50;99.90
5743;DHT22;2896;53.500;10.020;2022-09-03T04:11:17;12.50;99.90
5743;DHT22;2896;53.500;10.020;2022-09-03T04:13:44;12.40;99.90
5743;DHT22;2896;53.500;10.020;2022-09-03T04:16:14;12.40;99.90
5743;DHT22;2896;53.500;10.020;2022-09-03T04:18:41;12.40;99.90
5743;DHT22;2896;53.500;10.020;2022-09-03T04:21:09;12.40;99.90
5743;DHT22;2896;53.500;10.020;2022-09-03T04:23:37;12.50;99.90
5743;DHT22;2896;53.500;10.020;2022-09-03T04:26:05;12.50;99.90
5743;DHT22;2896;53.500;10.020;2022-09-03T04:28:32;12.60;99.90
5743;DHT22;2896;53.500;10.020;2022-09-03T04:31:00;12.70;99.90
5743;DHT22;2896;53.500;10.020;2022-09-03T04:33:29;12.70;99.90
5743;DHT22;2896;53.500;10.020;2022-09-03T04:36:04;12.90;99.90
5743;DHT22;2896;53.500;10.020;2022-09-03T04:38:31;12.70;99.90
5743;DHT22;2896;53.500;10.020;2022-09-03T04:40:58;12.70;99.90
5743;DHT22;2896;53.500;10.020;2022-09-03T04:43:25;12.80;99.90
5743;DHT22;2896;53.500;10.020;2022-09-03T04:45:55;12.80;99.90
5743;DHT22;2896;53.500;10.020;2022-09-03T04:48:23;12.90;99.90
5743;DHT22;2896;53.500;10.020;2022-09-03T04:50:51;12.90;99.90
5743;DHT22;2896;53.500;10.020;2022-09-03T04:53:17;12.90;99.90
5743;DHT22;2896;53.500;10.020;2022-09-03T04:55:44;12.90;99.90
5743;DHT22;2896;53.500;10.020;2022-09-03T04:58:11;12.90;99.90
5743;DHT22;2896;53.500;10.020;2022-09-03T05:00:37;12.90;99.90
5743;DHT22;2896;53.500;10.020;2022-09-03T05:03:04;12.90;99.90
5743;DHT22;2896;53.500;10.020;2022-09-03T05:05:31;12.90;99.90
5743;DHT22;2896;53.500;10.020;2022-09-03T05:08:00;13.00;99.90
5743;DHT22;2896;53.500;10.020;2022-09-03T05:10:27;12.90;99.90
5743;DHT22;2896;53.500;10.020;2022-09-03T05:12:58;12.80;99.90
5743;DHT22;2896;53.500;10.020;2022-09-03T05:15:25;12.80;99.90
5743;DHT22;2896;53.500;10.020;2022-09-03T05:17:55;12.80;99.90
5743;DHT22;2896;53.500;10.020;2022-09-03T05:20:22;12.90;99.90
5743;DHT22;2896;53.500;10.020;2022-09-03T05:22:49;12.90;99.90
5743;DHT22;2896;53.500;10.020;2022-09-03T05:25:17;12.90;99.90
5743;DHT22;2896;53.500;10.020;2022-09-03T05:27:44;13.00;99.90
5743;DHT22;2896;53.500;10.020;2022-09-03T05:30:11;13.10;99.90
5743;DHT22;2896;53.500;10.020;2022-09-03T05:32:38;13.30;99.90
5743;DHT22;2896;53.500;10.020;2022-09-03T05:35:06;13.30;99.90
5743;DHT22;2896;53.500;10.020;2022-09-03T05:37:33;13.20;99.90
5743;DHT22;2896;53.500;10.020;2022-09-03T05:40:00;13.30;99.90
5743;DHT22;2896;53.500;10.020;2022-09-03T05:42:28;13.50;99.90
5743;DHT22;2896;53.500;10.020;2022-09-03T05:44:55;13.60;99.90
5743;DHT22;2896;53.500;10.020;2022-09-03T05:47:22;13.60;99.90
5743;DHT22;2896;53.500;10.020;2022-09-03T05:49:49;13.60;99.90
5743;DHT22;2896;53.500;10.020;2022-09-03T05:52:15;13.70;99.90
5743;DHT22;2896;53.500;10.020;2022-09-03T05:54:44;13.70;99.90
5743;DHT22;2896;53.500;10.020;2022-09-03T05:57:11;13.80;99.90
5743;DHT22;2896;53.500;10.020;2022-09-03T05:59:40;13.80;99.90
5743;DHT22;2896;53.500;10.020;2022-09-03T06:02:06;13.80;99.90
5743;DHT22;2896;53.500;10.020;2022-09-03T06:04:33;13.90;99.90
5743;DHT22;2896;53.500;10.020;2022-09-03T06:06:59;14.10;99.90
5743;DHT22;2896;53.500;10.020;2022-09-03T06:09:26;14.10;99.90
5743;DHT22;2896;53.500;10.020;2022-09-03T06:11:53;14.20;99.90
5743;DHT22;2896;53.500;10.020;2022-09-03T06:14:20;14.40;99.90
5743;DHT22;2896;53.500;10.020;2022-09-03T06:16:49;14.60;99.90
5743;DHT22;2896;53.500;10.020;2022-09-03T06:19:17;14.00;99.90
5743;DHT22;2896;53.500;10.020;2022-09-03T06:21:45;14.80;99.90
5743;DHT22;2896;53.500;10.020;2022-09-03T06:24:13;15.00;99.90
5743;DHT22;2896;53.500;10.020;2022-09-03T06:26:40;15.40;99.90
5743;DHT22;2896;53.500;10.020;2022-09-03T06:29:07;15.70;99.90
5743;DHT22;2896;53.500;10.020;2022-09-03T06:31:34;15.80;99.90
5743;DHT22;2896;53.500;10.020;2022-09-03T06:34:02;15.80;99.90
5743;DHT22;2896;53.500;10.020;2022-09-03T06:36:31;15.90;99.90
5743;DHT22;2896;53.500;10.020;2022-09-03T06:38:58;15.80;99.90
5743;DHT22;2896;53.500;10.020;2022-09-03T06:41:26;15.90;99.90
5743;DHT22;2896;53.500;10.020;2022-09-03T06:43:57;16.10;99.90
5743;DHT22;2896;53.500;10.020;2022-09-03T06:46:28;16.20;99.90
5743;DHT22;2896;53.500;10.020;2022-09-03T06:48:55;16.20;99.90
5743;DHT22;2896;53.500;10.020;2022-09-03T06:51:25;16.30;99.90
5743;DHT22;2896;53.500;10.020;2022-09-03T06:53:54;16.40;99.90
5743;DHT22;2896;53.500;10.020;2022-09-03T06:56:23;16.50;99.90
5743;DHT22;2896;53.500;10.020;2022-09-03T06:58:52;16.50;99.90
5743;DHT22;2896;53.500;10.020;2022-09-03T07:01:20;16.60;99.90
5743;DHT22;2896;53.500;10.020;2022-09-03T07:03:51;16.70;99.90
5743;DHT22;2896;53.500;10.020;2022-09-03T07:06:20;16.80;99.90
5743;DHT22;2896;53.500;10.020;2022-09-03T07:08:48;16.80;99.90
5743;DHT22;2896;53.500;10.020;2022-09-03T07:11:17;16.90;99.90
5743;DHT22;2896;53.500;10.020;2022-09-03T07:13:46;17.10;99.90
5743;DHT22;2896;53.500;10.020;2022-09-03T07:16:15;17.00;99.90
5743;DHT22;2896;53.500;10.020;2022-09-03T07:18:42;17.10;99.90
5743;DHT22;2896;53.500;10.020;2022-09-03T07:21:11;17.80;99.90
5743;DHT22;2896;53.500;10.020;2022-09-03T07:23:39;17.40;99.90
5743;DHT22;2896;53.500;10.020;2022-09-03T07:26:08;18.30;99.90
5743;DHT22;2896;53.500;10.020;2022-09-03T07:28:37;17.70;99.90
5743;DHT22;2896;53.500;10.020;2022-09-03T07:31:08;17.60;99.90
5743;DHT22;2896;53.500;10.020;2022-09-03T07:33:36;17.80;99.90
5743;DHT22;2896;53.500;10.020;2022-09-03T07:36:03;17.90;99.90
5743;DHT22;2896;53.500;10.020;2022-09-03T07:38:31;17.80;99.90
5743;DHT22;2896;53.500;10.020;2022-09-03T07:40:58;17.90;99.90
5743;DHT22;2896;53.500;10.020;2022-09-03T07:43:28;18.00;99.90
5743;DHT22;2896;53.500;10.020;2022-09-03T07:45:56;18.20;99.90
5743;DHT22;2896;53.500;10.020;2022-09-03T07:48:23;19.70;99.90
5743;DHT22;2896;53.500;10.020;2022-09-03T07:50:50;18.50;99.90
5743;DHT22;2896;53.500;10.020;2022-09-03T07:53:16;18.70;99.90
5743;DHT22;2896;53.500;10.020;2022-09-03T07:55:45;18.90;99.90
5743;DHT22;2896;53.500;10.020;2022-09-03T07:58:12;19.00;99.90
5743;DHT22;2896;53.500;10.020;2022-09-03T08:00:40;19.10;99.90
5743;DHT22;2896;53.500;10.020;2022-09-03T08:03:07;19.20;99.90
5743;DHT22;2896;53.500;10.020;2022-09-03T08:05:35;19.00;99.90
5743;DHT22;2896;53.500;10.020;2022-09-03T08:08:02;19.20;99.90
5743;DHT22;2896;53.500;10.020;2022-09-03T08:10:29;19.40;99.90
5743;DHT22;2896;53.500;10.020;2022-09-03T08:12:57;18.00;99.90
5743;DHT22;2896;53.500;10.020;2022-09-03T08:15:24;19.80;99.90
5743;DHT22;2896;53.500;10.020;2022-09-03T08:17:52;19.90;99.90
5743;DHT22;2896;53.500;10.020;2022-09-03T08:20:19;21.10;99.90
5743;DHT22;2896;53.500;10.020;2022-09-03T08:22:45;20.20;99.90
5743;DHT22;2896;53.500;10.020;2022-09-03T08:25:12;20.40;99.90
5743;DHT22;2896;53.500;10.020;2022-09-03T08:27:40;20.50;99.90
5743;DHT22;2896;53.500;10.020;2022-09-03T08:30:07;20.40;99.90
5743;DHT22;2896;53.500;10.020;2022-09-03T08:32:36;20.20;99.90
5743;DHT22;2896;53.500;10.020;2022-09-03T08:35:05;20.40;99.90
5743;DHT22;2896;53.500;10.020;2022-09-03T08:37:33;20.40;99.90
5743;DHT22;2896;53.500;10.020;2022-09-03T08:39:59;20.50;99.90
5743;DHT22;2896;53.500;10.020;2022-09-03T08:42:37;20.50;99.90
5743;DHT22;2896;53.500;10.020;2022-09-03T08:45:06;20.60;99.90
5743;DHT22;2896;53.500;10.020;2022-09-03T08:47:39;20.70;99.90
5743;DHT22;2896;53.500;10.020;2022-09-03T08:50:15;20.80;99.90
5743;DHT22;2896;53.500;10.020;2022-09-03T08:52:46;20.90;99.90
5743;DHT22;2896;53.500;10.020;2022-09-03T08:55:19;20.80;99.90
5743;DHT22;2896;53.500;10.020;2022-09-03T08:57:48;20.80;99.90
5743;DHT22;2896;53.500;10.020;2022-09-03T09:00:16;20.70;99.90
5743;DHT22;2896;53.500;10.020;2022-09-03T09:02:52;20.70;99.90
5743;DHT22;2896;53.500;10.020;2022-09-03T09:05:27;20.70;99.90
5743;DHT22;2896;53.500;10.020;2022-09-03T09:08:00;20.90;99.90
5743;DHT22;2896;53.500;10.020;2022-09-03T09:10:35;21.00;99.90
5743;DHT22;2896;53.500;10.020;2022-09-03T09:13:12;21.00;99.90
5743;DHT22;2896;53.500;10.020;2022-09-03T09:15:49;21.20;99.90
5743;DHT22;2896;53.500;10.020;2022-09-03T09:18:24;21.40;99.90
5743;DHT22;2896;53.500;10.020;2022-09-03T09:21:06;21.50;99.90
5743;DHT22;2896;53.500;10.020;2022-09-03T09:23:41;21.50;99.90
5743;DHT22;2896;53.500;10.020;2022-09-03T09:26:11;21.60;99.90
5743;DHT22;2896;53.500;10.020;2022-09-03T09:28:39;21.80;99.90
5743;DHT22;2896;53.500;10.020;2022-09-03T09:31:06;21.70;99.90
5743;DHT22;2896;53.500;10.020;2022-09-03T09:33:37;21.70;99.90
5743;DHT22;2896;53.500;10.020;2022-09-03T09:36:08;21.60;99.90
5743;DHT22;2896;53.500;10.020;2022-09-03T09:38:37;21.60;99.90
5743;DHT22;2896;53.500;10.020;2022-09-03T09:41:09;23.30;99.90
5743;DHT22;2896;53.500;10.020;2022-09-03T09:43:36;21.70;99.90
5743;DHT22;2896;53.500;10.020;2022-09-03T09:46:09;21.90;99.90
5743;DHT22;2896;53.500;10.020;2022-09-03T09:48:42;21.90;99.90
5743;DHT22;2896;53.500;10.020;2022-09-03T09:51:24;22.10;99.90
5743;DHT22;2896;53.500;10.020;2022-09-03T09:54:01;22.10;99.90
5743;DHT22;2896;53.500;10.020;2022-09-03T09:56:29;22.40;99.90
5743;DHT22;2896;53.500;10.020;2022-09-03T09:59:08;22.50;99.90
5743;DHT22;2896;53.500;10.020;2022-09-03T10:01:39;22.70;99.90
5743;DHT22;2896;53.500;10.020;2022-09-03T10:04:20;22.80;99.90
5743;DHT22;2896;53.500;10.020;2022-09-03T10:07:14;23.10;99.90
5743;DHT22;2896;53.500;10.020;2022-09-03T10:09:58;22.80;99.90
5743;DHT22;2896;53.500;10.020;2022-09-03T10:12:29;23.30;99.90
5743;DHT22;2896;53.500;10.020;2022-09-03T10:15:00;23.10;99.90
5743;DHT22;2896;53.500;10.020;2022-09-03T10:17:38;23.30;99.90
5743;DHT22;2896;53.500;10.020;2022-09-03T10:20:10;23.10;99.90
5743;DHT22;2896;53.500;10.020;2022-09-03T10:23:00;23.00;99.90
5743;DHT22;2896;53.500;10.020;2022-09-03T10:25:35;23.20;99.90
5743;DHT22;2896;53.500;10.020;2022-09-03T10:28:05;23.20;99.90
5743;DHT22;2896;53.500;10.020;2022-09-03T10:30:40;23.50;99.90
5743;DHT22;2896;53.500;10.020;2022-09-03T10:33:15;23.60;99.90
5743;DHT22;2896;53.500;10.020;2022-09-03T10:35:48;23.60;99.90
5743;DHT22;2896;53.500;10.020;2022-09-03T10:38:25;23.60;99.90
5743;DHT22;2896;53.500;10.020;2022-09-03T10:41:01;23.50;99.90
5743;DHT22;2896;53.500;10.020;2022-09-03T10:43:47;24.00;99.90
5743;DHT22;2896;53.500;10.020;2022-09-03T10:46:24;23.60;99.90
5743;DHT22;2896;53.500;10.020;2022-09-03T10:51:50;23.80;99.90
5743;DHT22;2896;53.500;10.020;2022-09-03T10:54:48;23.70;99.90
5743;DHT22;2896;53.500;10.020;2022-09-03T10:57:28;24.30;99.90
5743;DHT22;2896;53.500;10.020;2022-09-03T11:00:03;24.10;99.90
5743;DHT22;2896;53.500;10.020;2022-09-03T11:05:39;24.30;99.90
5743;DHT22;2896;53.500;10.020;2022-09-03T11:08:11;24.30;99.90
5743;DHT22;2896;53.500;10.020;2022-09-03T11:10:41;24.30;99.90
5743;DHT22;2896;53.500;10.020;2022-09-03T11:13:12;23.90;99.90
5743;DHT22;2896;53.500;10.020;2022-09-03T11:15:43;23.50;99.90
5743;DHT22;2896;53.500;10.020;2022-09-03T11:18:15;23.20;99.90
5743;DHT22;2896;53.500;10.020;2022-09-03T11:20:46;23.60;99.90
5743;DHT22;2896;53.500;10.020;2022-09-03T11:23:14;24.60;99.90
5743;DHT22;2896;53.500;10.020;2022-09-03T11:25:47;25.00;99.90
5743;DHT22;2896;53.500;10.020;2022-09-03T11:28:22;25.00;99.90
5743;DHT22;2896;53.500;10.020;2022-09-03T11:31:04;25.50;99.90
5743;DHT22;2896;53.500;10.020;2022-09-03T11:33:40;25.60;99.90
5743;DHT22;2896;53.500;10.020;2022-09-03T11:36:10;26.00;99.90
5743;DHT22;2896;53.500;10.020;2022-09-03T11:38:37;25.90;99.90
5743;DHT22;2896;53.500;10.020;2022-09-03T11:41:11;25.80;99.90
5743;DHT22;2896;53.500;10.020;2022-09-03T11:43:40;25.90;99.90
5743;DHT22;2896;53.500;10.020;2022-09-03T11:46:10;25.30;99.90
5743;DHT22;2896;53.500;10.020;2022-09-03T11:48:40;25.60;99.90
5743;DHT22;2896;53.500;10.020;2022-09-03T11:51:29;25.70;99.90
5743;DHT22;2896;53.500;10.020;2022-09-03T11:53:58;26.00;99.90
5743;DHT22;2896;53.500;10.020;2022-09-03T11:56:28;26.30;99.90
5743;DHT22;2896;53.500;10.020;2022-09-03T11:59:17;25.80;99.90
5743;DHT22;2896;53.500;10.020;2022-09-03T12:01:48;25.50;99.90
5743;DHT22;2896;53.500;10.020;2022-09-03T12:04:19;25.40;99.90
5743;DHT22;2896;53.500;10.020;2022-09-03T12:07:00;25.70;99.90
5743;DHT22;2896;53.500;10.020;2022-09-03T12:09:57;26.20;99.90
5743;DHT22;2896;53.500;10.020;2022-09-03T12:12:39;26.00;99.90
5743;DHT22;2896;53.500;10.020;2022-09-03T12:15:16;25.90;99.90
5743;DHT22;2896;53.500;10.020;2022-09-03T12:17:51;25.70;99.90
5743;DHT22;2896;53.500;10.020;2022-09-03T12:20:38;26.00;99.90
5743;DHT22;2896;53.500;10.020;2022-09-03T12:23:05;26.30;99.90
5743;DHT22;2896;53.500;10.020;2022-09-03T12:25:33;26.00;99.90
5743;DHT22;2896;53.500;10.020;2022-09-03T12:28:01;25.50;99.90
5743;DHT22;2896;53.500;10.020;2022-09-03T12:30:37;25.60;99.90
5743;DHT22;2896;53.500;10.020;2022-09-03T12:33:04;25.90;99.90
5743;DHT22;2896;53.500;10.020;2022-09-03T12:35:31;25.80;99.90
5743;DHT22;2896;53.500;10.020;2022-09-03T12:44:51;26.40;99.90
5743;DHT22;2896;53.500;10.020;2022-09-03T12:47:19;24.80;99.90
5743;DHT22;2896;53.500;10.020;2022-09-03T12:49:48;24.90;99.90
5743;DHT22;2896;53.500;10.020;2022-09-03T12:52:19;25.00;99.90
5743;DHT22;2896;53.500;10.020;2022-09-03T12:54:51;25.10;99.90
5743;DHT22;2896;53.500;10.020;2022-09-03T12:57:22;25.40;99.90
5743;DHT22;2896;53.500;10.020;2022-09-03T12:59:54;25.80;99.90
5743;DHT22;2896;53.500;10.020;2022-09-03T13:02:26;25.70;99.90
5743;DHT22;2896;53.500;10.020;2022-09-03T13:04:54;25.80;99.90
5743;DHT22;2896;53.500;10.020;2022-09-03T13:07:25;26.10;99.90
5743;DHT22;2896;53.500;10.020;2022-09-03T13:09:59;26.30;99.90
5743;DHT22;2896;53.500;10.020;2022-09-03T13:12:30;26.60;99.90
5743;DHT22;2896;53.500;10.020;2022-09-03T13:15:05;26.70;99.90
5743;DHT22;2896;53.500;10.020;2022-09-03T13:17:45;26.60;99.90
5743;DHT22;2896;53.500;10.020;2022-09-03T13:20:27;27.10;99.90
5743;DHT22;2896;53.500;10.020;2022-09-03T13:23:08;25.50;99.90
5743;DHT22;2896;53.500;10.020;2022-09-03T13:25:48;25.60;99.90
5743;DHT22;2896;53.500;10.020;2022-09-03T13:28:29;25.40;99.90
5743;DHT22;2896;53.500;10.020;2022-09-03T13:31:07;25.60;99.90
5743;DHT22;2896;53.500;10.020;2022-09-03T13:33:38;26.20;99.90
5743;DHT22;2896;53.500;10.020;2022-09-03T13:36:09;26.70;99.90
5743;DHT22;2896;53.500;10.020;2022-09-03T13:38:45;26.90;99.90
5743;DHT22;2896;53.500;10.020;2022-09-03T13:41:19;26.70;99.90
5743;DHT22;2896;53.500;10.020;2022-09-03T13:43:52;26.40;99.90
5743;DHT22;2896;53.500;10.020;2022-09-03T13:46:24;26.50;99.90
5743;DHT22;2896;53.500;10.020;2022-09-03T13:48:58;26.40;99.90
5743;DHT22;2896;53.500;10.020;2022-09-03T13:51:50;26.40;99.90
5743;DHT22;2896;53.500;10.020;2022-09-03T13:54:23;26.20;99.90
5743;DHT22;2896;53.500;10.020;2022-09-03T13:56:56;25.90;99.90
5743;DHT22;2896;53.500;10.020;2022-09-03T13:59:30;26.00;99.90
5743;DHT22;2896;53.500;10.020;2022-09-03T14:02:15;25.80;99.90
5743;DHT22;2896;53.500;10.020;2022-09-03T14:04:53;26.20;99.90
5743;DHT22;2896;53.500;10.020;2022-09-03T14:07:27;26.30;99.90
5743;DHT22;2896;53.500;10.020;2022-09-03T14:10:03;26.20;99.90
5743;DHT22;2896;53.500;10.020;2022-09-03T14:12:39;26.40;99.90
5743;DHT22;2896;53.500;10.020;2022-09-03T14:15:16;26.30;99.90
5743;DHT22;2896;53.500;10.020;2022-09-03T14:17:47;26.30;99.90
5743;DHT22;2896;53.500;10.020;2022-09-03T14:20:21;26.30;99.90
5743;DHT22;2896;53.500;10.020;2022-09-03T14:22:52;26.70;99.90
5743;DHT22;2896;53.500;10.020;2022-09-03T14:25:23;27.00;99.90
5743;DHT22;2896;53.500;10.020;2022-09-03T14:27:50;27.30;99.90
5743;DHT22;2896;53.500;10.020;2022-09-03T14:30:26;27.20;99.90
5743;DHT22;2896;53.500;10.020;2022-09-03T14:33:06;26.80;99.90
5743;DHT22;2896;53.500;10.020;2022-09-03T14:35:44;26.30;99.90
5743;DHT22;2896;53.500;10.020;2022-09-03T14:38:31;26.60;99.90
5743;DHT22;2896;53.500;10.020;2022-09-03T14:41:05;27.00;99.90
5743;DHT22;2896;53.500;10.020;2022-09-03T14:43:51;27.20;99.90
5743;DHT22;2896;53.500;10.020;2022-09-03T14:46:36;26.90;99.90
5743;DHT22;2896;53.500;10.020;2022-09-03T14:49:25;27.00;99.90
5743;DHT22;2896;53.500;10.020;2022-09-03T14:52:06;26.80;99.90
5743;DHT22;2896;53.500;10.020;2022-09-03T14:54:56;27.00;99.90
5743;DHT22;2896;53.500;10.020;2022-09-03T14:57:34;27.00;99.90
5743;DHT22;2896;53.500;10.020;2022-09-03T15:00:06;27.30;99.90
5743;DHT22;2896;53.500;10.020;2022-09-03T15:02:55;26.90;99.90
5743;DHT22;2896;53.500;10.020;2022-09-03T15:05:45;26.90;99.90
5743;DHT22;2896;53.500;10.020;2022-09-03T15:08:21;26.90;99.90
5743;DHT22;2896;53.500;10.020;2022-09-03T15:10:56;27.10;99.90
5743;DHT22;2896;53.500;10.020;2022-09-03T15:13:27;26.50;99.90
5743;DHT22;2896;53.500;10.020;2022-09-03T15:16:09;26.60;99.90
5743;DHT22;2896;53.500;10.020;2022-09-03T15:18:55;26.60;99.90
5743;DHT22;2896;53.500;10.020;2022-09-03T15:21:35;26.60;99.90
5743;DHT22;2896;53.500;10.020;2022-09-03T15:24:14;26.40;99.90
5743;DHT22;2896;53.500;10.020;2022-09-03T15:26:54;26.60;99.90
5743;DHT22;2896;53.500;10.020;2022-09-03T15:29:46;26.30;99.90
5743;DHT22;2896;53.500;10.020;2022-09-03T15:32:28;26.40;99.90
5743;DHT22;2896;53.500;10.020;2022-09-03T15:35:06;26.30;99.90
5743;DHT22;2896;53.500;10.020;2022-09-03T15:37:38;26.10;99.90
5743;DHT22;2896;53.500;10.020;2022-09-03T15:40:22;25.90;99.90
5743;DHT22;2896;53.500;10.020;2022-09-03T15:42:54;25.70;99.90
5743;DHT22;2896;53.500;10.020;2022-09-03T15:45:31;26.00;99.90
5743;DHT22;2896;53.500;10.020;2022-09-03T15:48:16;25.70;99.90
5743;DHT22;2896;53.500;10.020;2022-09-03T15:50:52;25.70;99.90
5743;DHT22;2896;53.500;10.020;2022-09-03T15:53:28;25.60;99.90
5743;DHT22;2896;53.500;10.020;2022-09-03T15:56:07;25.40;99.90
5743;DHT22;2896;53.500;10.020;2022-09-03T15:58:40;25.40;99.90
5743;DHT22;2896;53.500;10.020;2022-09-03T16:01:18;25.40;99.90
5743;DHT22;2896;53.500;10.020;2022-09-03T16:03:56;25.40;99.90
5743;DHT22;2896;53.500;10.020;2022-09-03T16:06:30;25.40;99.90
5743;DHT22;2896;53.500;10.020;2022-09-03T16:09:08;25.20;99.90
5743;DHT22;2896;53.500;10.020;2022-09-03T16:11:50;25.00;99.90
5743;DHT22;2896;53.500;10.020;2022-09-03T16:14:22;24.70;99.90
5743;DHT22;2896;53.500;10.020;2022-09-03T16:16:58;24.60;99.90
5743;DHT22;2896;53.500;10.020;2022-09-03T16:19:30;24.40;99.90
5743;DHT22;2896;53.500;10.020;2022-09-03T16:22:05;24.90;99.90
5743;DHT22;2896;53.500;10.020;2022-09-03T16:24:40;24.00;99.90
5743;DHT22;2896;53.500;10.020;2022-09-03T16:27:14;23.90;99.90
5743;DHT22;2896;53.500;10.020;2022-09-03T16:29:55;24.00;99.90
5743;DHT22;2896;53.500;10.020;2022-09-03T16:32:29;24.00;99.90